Crockett, KY (41413)

9:44 AM EST on December 10, 2016 (GMT -0500)
Keaton | | Change Station

Elev 850 ft 37.96 °N, 82.98 °W | Updated 28 seconds ago

Mostly Cloudy
Mostly Cloudy
21.2 °F
Feels Like 21 °F
N
3.0
Wind Variable Wind from WNW

Today
High -- | Low -- °F
--% Chance of Precip.
Yesterday
High -- | Low -- °F
Precip. -- in
Pressure 30.57 in
Visibility 10.0 miles
Clouds Overcast 2400 ft
Windchill 21 °F
Dew Point 17 °F
Humidity 83%
Rainfall 0.00 in
Snow Depth Not available.
7:37 AM 5:12 PM
Waxing Gibbous, 84% visible
METAR KSJS 101435Z AUTO 28005KT 10SM OVC024 M05/M10 A3057 RMK AO2 T10501096
Pressure 30.57 in
Visibility 10.0 miles
Clouds Overcast 2400 ft
Windchill 21 °F
Dew Point 17 °F
Humidity 83%
Rainfall 0.00 in
Snow Depth Not available.
7:37 AM 5:12 PM
Waxing Gibbous, 84% visible
METAR KSJS 101435Z AUTO 28005KT 10SM OVC024 M05/M10 A3057 RMK AO2 T10501096

10-Day Weather Forecast

Almanac

Astronomy

Dec. 10, 2016 Rise Set
Actual Time
Civil Twilight
Nautical Twilight
Astronomical Twilight
Moon
Length of Visible Light
Length of Day
Tomorrow will be .
, % of the Moon is Illuminated

Today's Extremes

State Highs State Lows

Community

WunderPhotos

Upload Photos

1,956,549 photos uploaded!

WunderBlog® & News

Nearby

Air Quality

  Air Quality AQ Index Pollutant
Not available.

Snow Depth

Station Depth Elevation

Earthquake Activity

City Distance Mag. Time & Date
Minimum magnitude displayed is 2.5.

Coastal Water Temperatures

Place Temperature

Stations

Nearby Weather Stations

Station Location Temp. Windchill Dew Point Humidity Wind Precip. Elev Updated Type
                   

Watches & Warnings

There are currently no watches in effect.